Young America, Minnesota
Current Conditions -  °F | °C
As of 3:13 AM on Wednesday 22 Oct 2014 (Local Time) from KGYL Reporting Station
Clear Clear  
Wind Chill:   Ceiling: Unl
Heat Index:   Visibility: 10mi
Dew Point:   Wind: 9mph
Humidity: 79%   Direction: 140°SE
Pressure: 30.14"   Gusts: NA
Location:  44.78°N, 93.92°W
Report Text: KGYL 220813Z AUTO 14008KT 10SM CLR 08/04 A3014 RMK AO2 T00750041
Loading
Personal Weather Stations






























Interactive Weather Map
Tropical Storm Tracking
New forecast layout! Learn more

10-Day Weather Forecast

Advertisements
Track Severe Weather on mobile